Pillar Point, New York
Current Conditions -  °F | °C
As of 3:56 AM on Monday 24 Nov 2014 (Local Time) from KART Reporting Station
Light Rain Light Rain  
Wind Chill: 54°   Ceiling: 9000
Heat Index: 54°   Visibility: 8mi
Dew Point: 46°   Wind: 16mph
Humidity: 75%   Direction: 150°SSE
Pressure: 29.48"   Gusts: 30mph
Location:  44.0116°N, 76.0789°W
Report Text: KART 240856Z AUTO 15014G26KT 8SM -RA OVC090 12/08 A2948 RMK AO2 PK WND 15026/0848 PRESFR SLP981 P0010 60013 T01220078 58067
Loading
Personal Weather Stations






























Interactive Weather Map New forecast layout! Learn more

10-Day Weather Forecast

Advertisements
Track Severe Weather on mobile